createdAt,value
2017-10-07T00:00:16.396Z,982.47
2017-10-07T00:01:16.428Z,982.44
2017-10-07T00:02:16.462Z,982.44
2017-10-07T00:03:16.498Z,982.46
2017-10-07T00:04:16.529Z,982.42
2017-10-07T00:05:16.567Z,982.46
2017-10-07T00:06:16.600Z,982.48
2017-10-07T00:07:16.631Z,982.47
2017-10-07T00:08:16.666Z,982.46
2017-10-07T00:09:16.699Z,982.52
2017-10-07T00:10:16.732Z,982.46
2017-10-07T00:11:16.766Z,982.46
2017-10-07T00:12:16.798Z,982.49
2017-10-07T00:13:16.839Z,982.45
2017-10-07T00:14:16.871Z,982.44
2017-10-07T00:15:16.902Z,982.42
2017-10-07T00:16:16.938Z,982.39
2017-10-07T00:17:16.973Z,982.43
2017-10-07T00:18:17.003Z,982.39
2017-10-07T00:19:17.041Z,982.40
2017-10-07T00:20:17.070Z,982.45
2017-10-07T00:21:17.106Z,982.36
2017-10-07T00:22:17.142Z,982.40
2017-10-07T00:23:17.177Z,982.46
2017-10-07T00:24:17.206Z,982.42
2017-10-07T00:25:17.240Z,982.41
2017-10-07T00:26:17.274Z,982.42
2017-10-07T00:27:17.310Z,982.45
2017-10-07T00:28:17.343Z,982.50
2017-10-07T00:29:17.377Z,982.46
2017-10-07T00:30:17.411Z,982.44
2017-10-07T00:31:17.444Z,982.48
2017-10-07T00:32:17.477Z,982.47
2017-10-07T00:33:17.515Z,982.44
2017-10-07T00:34:17.545Z,982.44
2017-10-07T00:35:17.578Z,982.46
2017-10-07T00:36:17.612Z,982.44
2017-10-07T00:37:17.646Z,982.46
2017-10-07T00:38:17.692Z,982.42
2017-10-07T00:39:17.714Z,982.47
2017-10-07T00:40:17.748Z,982.44
2017-10-07T00:41:17.785Z,982.38
2017-10-07T00:42:17.821Z,982.40
2017-10-07T00:43:17.852Z,982.43
2017-10-07T00:44:17.885Z,982.38
2017-10-07T00:45:17.918Z,982.40
2017-10-07T00:46:17.960Z,982.42
2017-10-07T00:47:17.987Z,982.40
2017-10-07T00:48:18.020Z,982.43
2017-10-07T00:49:18.059Z,982.43
2017-10-07T00:50:18.091Z,982.44
2017-10-07T00:51:18.126Z,982.41
2017-10-07T00:52:18.156Z,982.43
2017-10-07T00:53:18.195Z,982.42
2017-10-07T00:54:18.225Z,982.43
2017-10-07T00:55:18.257Z,982.44
2017-10-07T00:56:18.290Z,982.39
2017-10-07T00:57:18.326Z,982.38
2017-10-07T00:58:18.361Z,982.34
2017-10-07T00:59:18.394Z,982.37
2017-10-07T01:00:18.427Z,982.36
2017-10-07T01:01:18.461Z,982.34
2017-10-07T01:02:18.496Z,982.39
2017-10-07T01:03:18.530Z,982.34
2017-10-07T01:04:18.563Z,982.35
2017-10-07T01:05:18.602Z,982.32
2017-10-07T01:06:18.640Z,982.25
2017-10-07T01:07:18.667Z,982.30
2017-10-07T01:08:18.708Z,982.27
2017-10-07T01:09:18.740Z,982.28
2017-10-07T01:10:18.768Z,982.31
2017-10-07T01:11:18.803Z,982.31
2017-10-07T01:12:18.838Z,982.31
2017-10-07T01:13:18.874Z,982.32
2017-10-07T01:14:18.906Z,982.25
2017-10-07T01:15:18.939Z,982.28
2017-10-07T01:16:18.971Z,982.25
2017-10-07T01:17:19.007Z,982.25
2017-10-07T01:18:19.044Z,982.21
2017-10-07T01:19:19.078Z,982.25
2017-10-07T01:20:19.118Z,982.19
2017-10-07T01:21:19.151Z,982.25
2017-10-07T01:22:19.179Z,982.20
2017-10-07T01:23:19.212Z,982.21
2017-10-07T01:24:19.262Z,982.24
2017-10-07T01:25:19.283Z,982.28
2017-10-07T01:26:19.320Z,982.18
2017-10-07T01:27:19.348Z,982.25
2017-10-07T01:28:19.385Z,982.17
2017-10-07T01:29:19.417Z,982.17
2017-10-07T01:30:19.451Z,982.14
2017-10-07T01:31:19.489Z,982.20
2017-10-07T01:32:19.519Z,982.18
2017-10-07T01:33:19.554Z,982.16
2017-10-07T01:34:19.591Z,982.18
2017-10-07T01:35:19.628Z,982.16
2017-10-07T01:36:19.660Z,982.11
2017-10-07T01:37:19.690Z,982.13
2017-10-07T01:38:19.725Z,982.18
2017-10-07T01:39:19.758Z,982.14
2017-10-07T01:40:19.793Z,982.12
2017-10-07T01:41:19.824Z,982.13
2017-10-07T01:42:19.860Z,982.11
2017-10-07T01:43:19.897Z,982.13
2017-10-07T01:44:19.928Z,982.13
2017-10-07T01:45:19.965Z,982.17
2017-10-07T01:46:19.996Z,982.17
2017-10-07T01:47:20.036Z,982.15
2017-10-07T01:48:20.065Z,982.16
2017-10-07T01:49:20.099Z,982.15
2017-10-07T01:50:20.136Z,982.17
2017-10-07T01:51:20.171Z,982.23
2017-10-07T01:52:20.206Z,982.21
2017-10-07T01:53:20.239Z,982.25
2017-10-07T01:54:20.271Z,982.25
2017-10-07T01:55:20.309Z,982.22
2017-10-07T01:56:20.337Z,982.21
2017-10-07T01:57:20.373Z,982.21
2017-10-07T01:58:20.418Z,982.19
2017-10-07T01:59:20.441Z,982.17
2017-10-07T02:00:20.478Z,982.27
2017-10-07T02:01:20.508Z,982.23
2017-10-07T02:02:20.546Z,982.25
2017-10-07T02:03:20.578Z,982.21
2017-10-07T02:04:20.612Z,982.23
2017-10-07T02:05:20.645Z,982.20
2017-10-07T02:06:20.679Z,982.24
2017-10-07T02:07:20.718Z,982.23
2017-10-07T02:08:20.750Z,982.28
2017-10-07T02:09:20.781Z,982.27
2017-10-07T02:10:20.817Z,982.28
2017-10-07T02:11:20.853Z,982.29
2017-10-07T02:12:20.885Z,982.28
2017-10-07T02:13:20.921Z,982.29
2017-10-07T02:14:20.952Z,982.34
2017-10-07T02:15:20.990Z,982.29
2017-10-07T02:16:21.024Z,982.34
2017-10-07T02:17:21.057Z,982.32
2017-10-07T02:18:21.090Z,982.33
2017-10-07T02:19:21.127Z,982.35
2017-10-07T02:20:21.158Z,982.33
2017-10-07T02:21:21.194Z,982.37
2017-10-07T02:22:21.231Z,982.40
2017-10-07T02:23:21.270Z,982.34
2017-10-07T02:24:21.297Z,982.37
2017-10-07T02:25:21.330Z,982.39
2017-10-07T02:26:21.366Z,982.38
2017-10-07T02:27:21.398Z,982.38
2017-10-07T02:28:21.437Z,982.31
2017-10-07T02:29:21.467Z,982.36
2017-10-07T02:30:21.501Z,982.33
2017-10-07T02:31:21.535Z,982.35
2017-10-07T02:32:21.572Z,982.35
2017-10-07T02:33:21.603Z,982.37
2017-10-07T02:34:21.640Z,982.39
2017-10-07T02:35:21.671Z,982.41
2017-10-07T02:36:21.703Z,982.37
2017-10-07T02:37:21.743Z,982.31
2017-10-07T02:38:21.774Z,982.32
2017-10-07T02:39:21.812Z,982.32
2017-10-07T02:40:21.841Z,982.24
2017-10-07T02:41:21.875Z,982.20
2017-10-07T02:42:21.912Z,982.35
2017-10-07T02:43:21.945Z,982.30
2017-10-07T02:44:21.977Z,982.31
2017-10-07T02:45:22.015Z,982.34
2017-10-07T02:46:22.048Z,982.40
2017-10-07T02:47:22.084Z,982.38
2017-10-07T02:48:22.113Z,982.34
2017-10-07T02:49:22.157Z,982.34
2017-10-07T02:50:22.182Z,982.41
2017-10-07T02:51:22.223Z,982.41
2017-10-07T02:52:22.251Z,982.41
2017-10-07T02:53:22.293Z,982.42
2017-10-07T02:54:22.319Z,982.41
2017-10-07T02:55:22.356Z,982.36
2017-10-07T02:56:22.391Z,982.37
2017-10-07T02:57:22.421Z,982.39
2017-10-07T02:58:22.455Z,982.35
2017-10-07T02:59:22.489Z,982.31
2017-10-07T03:00:22.526Z,982.41
2017-10-07T03:01:22.558Z,982.39
2017-10-07T03:02:22.591Z,982.32
2017-10-07T03:03:22.625Z,982.41
2017-10-07T03:04:22.659Z,982.40
2017-10-07T03:05:22.691Z,982.45
2017-10-07T03:06:22.726Z,982.50
2017-10-07T03:07:22.761Z,982.47
2017-10-07T03:08:22.796Z,982.48
2017-10-07T03:09:22.829Z,982.49
2017-10-07T03:10:22.866Z,982.55
2017-10-07T03:11:22.899Z,982.53
2017-10-07T03:12:22.936Z,982.52
2017-10-07T03:13:22.963Z,982.54
2017-10-07T03:14:23.037Z,982.60
2017-10-07T03:15:23.037Z,982.51
2017-10-07T03:16:23.069Z,982.54
2017-10-07T03:17:23.101Z,982.54
2017-10-07T03:18:23.150Z,982.52
2017-10-07T03:19:23.170Z,982.49
2017-10-07T03:20:23.202Z,982.47
2017-10-07T03:21:23.235Z,982.41
2017-10-07T03:22:23.272Z,982.42
2017-10-07T03:23:23.305Z,982.44
2017-10-07T03:24:23.341Z,982.42
2017-10-07T03:25:23.384Z,982.37
2017-10-07T03:26:23.407Z,982.38
2017-10-07T03:27:23.438Z,982.41
2017-10-07T03:28:23.472Z,982.48
2017-10-07T03:29:23.509Z,982.46
2017-10-07T03:30:23.544Z,982.48
2017-10-07T03:31:23.577Z,982.50
2017-10-07T03:32:23.609Z,982.55
2017-10-07T03:33:23.652Z,982.52
2017-10-07T03:34:23.677Z,982.49
2017-10-07T03:35:23.713Z,982.50
2017-10-07T03:36:23.750Z,982.55
2017-10-07T03:37:23.786Z,982.53
2017-10-07T03:38:23.814Z,982.59
2017-10-07T03:39:23.844Z,982.52
2017-10-07T03:40:23.879Z,982.59
2017-10-07T03:41:23.913Z,982.65
2017-10-07T03:42:23.952Z,982.59
2017-10-07T03:43:23.984Z,982.60
2017-10-07T03:44:24.014Z,982.64
2017-10-07T03:45:24.051Z,982.72
2017-10-07T03:46:24.099Z,982.68
2017-10-07T03:47:24.120Z,982.63
2017-10-07T03:48:24.154Z,982.65
2017-10-07T03:49:24.184Z,982.67
2017-10-07T03:50:24.221Z,982.64
2017-10-07T03:51:24.253Z,982.67
2017-10-07T03:52:24.288Z,982.65
2017-10-07T03:53:24.319Z,982.64
2017-10-07T03:54:24.357Z,982.60
2017-10-07T03:55:24.388Z,982.58
2017-10-07T03:56:24.422Z,982.56
2017-10-07T03:57:24.455Z,982.62
2017-10-07T03:58:24.494Z,982.60
2017-10-07T03:59:24.524Z,982.66
2017-10-07T04:00:24.558Z,982.64
2017-10-07T04:01:24.591Z,982.64
2017-10-07T04:02:24.629Z,982.68
2017-10-07T04:03:24.658Z,982.69
2017-10-07T04:04:24.703Z,982.68
2017-10-07T04:05:24.728Z,982.68
2017-10-07T04:06:24.761Z,982.74
2017-10-07T04:07:24.795Z,982.71
2017-10-07T04:08:24.833Z,982.71
2017-10-07T04:09:24.862Z,982.70
2017-10-07T04:10:24.895Z,982.73
2017-10-07T04:11:24.930Z,982.72
2017-10-07T04:12:24.969Z,982.72
2017-10-07T04:13:24.998Z,982.67
2017-10-07T04:14:25.035Z,982.64
2017-10-07T04:15:25.071Z,982.62
2017-10-07T04:16:25.097Z,982.60
2017-10-07T04:17:25.134Z,982.58
2017-10-07T04:18:25.167Z,982.55
2017-10-07T04:19:25.201Z,982.56
2017-10-07T04:20:25.234Z,982.59
2017-10-07T04:21:25.266Z,982.59
2017-10-07T04:22:25.301Z,982.61
2017-10-07T04:23:25.337Z,982.65
2017-10-07T04:24:25.373Z,982.65
2017-10-07T04:25:25.403Z,982.63
2017-10-07T04:26:25.440Z,982.66
2017-10-07T04:27:25.474Z,982.65
2017-10-07T04:28:25.506Z,982.65
2017-10-07T04:29:25.540Z,982.68
2017-10-07T04:30:25.575Z,982.62
2017-10-07T04:31:25.605Z,982.64
2017-10-07T04:32:25.638Z,982.70
2017-10-07T04:33:25.673Z,982.70
2017-10-07T04:34:25.712Z,982.67
2017-10-07T04:35:25.740Z,982.69
2017-10-07T04:36:25.775Z,982.70
2017-10-07T04:37:25.809Z,982.73
2017-10-07T04:38:25.843Z,982.73
2017-10-07T04:39:25.876Z,982.73
2017-10-07T04:40:25.912Z,982.79
2017-10-07T04:41:25.945Z,982.71
2017-10-07T04:42:25.981Z,982.75
2017-10-07T04:43:26.016Z,982.77
2017-10-07T04:44:26.045Z,982.79
2017-10-07T04:45:26.084Z,982.79
2017-10-07T04:46:26.118Z,982.79
2017-10-07T04:47:26.149Z,982.80
2017-10-07T04:48:26.181Z,982.78
2017-10-07T04:49:26.217Z,982.80
2017-10-07T04:50:26.251Z,982.79
2017-10-07T04:51:26.286Z,982.81
2017-10-07T04:52:26.325Z,982.82
2017-10-07T04:53:26.351Z,982.85
2017-10-07T04:54:26.389Z,982.82
2017-10-07T04:55:26.421Z,982.83
2017-10-07T04:56:26.453Z,982.90
2017-10-07T04:57:26.498Z,982.89
2017-10-07T04:58:26.522Z,982.94
2017-10-07T04:59:26.555Z,982.91
2017-10-07T05:00:26.587Z,982.92
2017-10-07T05:01:26.622Z,982.93
2017-10-07T05:02:26.657Z,982.93
2017-10-07T05:03:26.694Z,982.94
2017-10-07T05:04:26.725Z,982.94
2017-10-07T05:05:26.762Z,982.97
2017-10-07T05:06:26.794Z,982.95
2017-10-07T05:07:26.829Z,982.96
2017-10-07T05:08:26.860Z,982.99
2017-10-07T05:09:26.899Z,982.96
2017-10-07T05:10:26.929Z,982.97
2017-10-07T05:11:26.970Z,982.96
2017-10-07T05:12:26.998Z,982.99
2017-10-07T05:13:27.031Z,983.00
2017-10-07T05:14:27.064Z,982.98
2017-10-07T05:15:27.098Z,983.04
2017-10-07T05:16:27.132Z,983.04
2017-10-07T05:17:27.169Z,983.04
2017-10-07T05:18:27.203Z,983.10
2017-10-07T05:19:27.235Z,983.08
2017-10-07T05:20:27.270Z,983.08
2017-10-07T05:21:27.303Z,983.10
2017-10-07T05:22:27.343Z,983.02
2017-10-07T05:23:27.370Z,983.06
2017-10-07T05:24:27.412Z,983.06
2017-10-07T05:25:27.437Z,983.11
2017-10-07T05:26:27.473Z,983.08
2017-10-07T05:27:27.505Z,983.13
2017-10-07T05:28:27.539Z,983.11
2017-10-07T05:29:27.572Z,983.16
2017-10-07T05:30:27.609Z,983.13
2017-10-07T05:31:27.642Z,983.13
2017-10-07T05:32:27.678Z,983.10
2017-10-07T05:33:27.714Z,983.26
2017-10-07T05:34:27.741Z,983.15
2017-10-07T05:35:27.779Z,983.21
2017-10-07T05:36:27.816Z,983.19
2017-10-07T05:37:27.847Z,983.21
2017-10-07T05:38:27.881Z,983.16
2017-10-07T05:39:27.917Z,983.16
2017-10-07T05:40:27.947Z,983.14
2017-10-07T05:41:27.983Z,983.13
2017-10-07T05:42:28.020Z,983.17
2017-10-07T05:43:28.055Z,983.20
2017-10-07T05:44:28.086Z,983.18
2017-10-07T05:45:28.118Z,983.21
2017-10-07T05:46:28.159Z,983.24
2017-10-07T05:47:28.187Z,983.22
2017-10-07T05:48:28.225Z,983.22
2017-10-07T05:49:28.256Z,983.22
2017-10-07T05:50:28.288Z,983.20
2017-10-07T05:51:28.325Z,983.22
2017-10-07T05:52:28.361Z,983.20
2017-10-07T05:53:28.398Z,983.23
2017-10-07T05:54:28.426Z,983.23
2017-10-07T05:55:28.463Z,983.25
2017-10-07T05:56:28.495Z,983.26
2017-10-07T05:57:28.527Z,983.23
2017-10-07T05:58:28.560Z,983.25
2017-10-07T05:59:28.597Z,983.29
2017-10-07T06:00:28.629Z,983.29
2017-10-07T06:01:28.684Z,983.32
2017-10-07T06:02:28.712Z,983.24
2017-10-07T06:03:28.738Z,983.19
2017-10-07T06:04:28.774Z,983.19
2017-10-07T06:05:28.802Z,983.23
2017-10-07T06:06:28.834Z,983.20
2017-10-07T06:07:28.879Z,983.25
2017-10-07T06:08:28.939Z,983.28
2017-10-07T06:09:28.941Z,983.26
2017-10-07T06:10:28.976Z,983.22
2017-10-07T06:11:29.009Z,983.25
2017-10-07T06:12:29.042Z,983.23
2017-10-07T06:13:29.076Z,983.30
2017-10-07T06:14:29.113Z,983.29
2017-10-07T06:15:29.146Z,983.27
2017-10-07T06:16:29.176Z,983.26
2017-10-07T06:17:29.214Z,983.28
2017-10-07T06:18:29.247Z,983.33
2017-10-07T06:19:29.281Z,983.32
2017-10-07T06:20:29.315Z,983.25
2017-10-07T06:21:29.348Z,983.31
2017-10-07T06:22:29.384Z,983.33
2017-10-07T06:23:29.417Z,983.32
2017-10-07T06:24:29.466Z,983.37
2017-10-07T06:25:29.491Z,983.36
2017-10-07T06:26:29.525Z,983.32
2017-10-07T06:27:29.558Z,983.29
2017-10-07T06:28:29.590Z,983.33
2017-10-07T06:29:29.622Z,983.30
2017-10-07T06:30:29.657Z,983.28
2017-10-07T06:31:29.693Z,983.30
2017-10-07T06:32:29.727Z,983.28
2017-10-07T06:33:29.761Z,983.29
2017-10-07T06:34:29.797Z,983.31
2017-10-07T06:35:29.831Z,983.32
2017-10-07T06:36:29.873Z,983.31
2017-10-07T06:37:29.897Z,983.26
2017-10-07T06:38:29.940Z,983.30
2017-10-07T06:39:29.968Z,983.27
2017-10-07T06:40:29.999Z,983.29
2017-10-07T06:41:30.034Z,983.33
2017-10-07T06:42:30.071Z,983.37
2017-10-07T06:43:30.107Z,983.34
2017-10-07T06:44:30.140Z,983.37
2017-10-07T06:45:30.178Z,983.37
2017-10-07T06:46:30.208Z,983.37
2017-10-07T06:47:30.243Z,983.40
2017-10-07T06:48:30.275Z,983.37
2017-10-07T06:49:30.309Z,983.33
2017-10-07T06:50:30.347Z,983.37
2017-10-07T06:51:30.380Z,983.33
2017-10-07T06:52:30.420Z,983.34
2017-10-07T06:53:30.453Z,983.35
2017-10-07T06:54:30.483Z,983.38
2017-10-07T06:55:30.518Z,983.35
2017-10-07T06:56:30.558Z,983.38
2017-10-07T06:57:30.587Z,983.41
2017-10-07T06:58:30.621Z,983.30
2017-10-07T06:59:30.660Z,983.33
2017-10-07T07:00:30.690Z,983.28
2017-10-07T07:01:30.729Z,983.31
2017-10-07T07:02:30.765Z,983.27
2017-10-07T07:03:30.797Z,983.33
2017-10-07T07:04:30.826Z,983.32
2017-10-07T07:05:30.868Z,983.31
2017-10-07T07:06:30.899Z,983.29
2017-10-07T07:07:30.939Z,983.28
2017-10-07T07:08:30.979Z,983.29
2017-10-07T07:09:31.002Z,983.30
2017-10-07T07:10:31.038Z,983.28
2017-10-07T07:11:31.072Z,983.32
2017-10-07T07:12:31.106Z,983.33
2017-10-07T07:13:31.142Z,983.34
2017-10-07T07:14:31.174Z,983.34
2017-10-07T07:15:31.214Z,983.35
2017-10-07T07:16:31.247Z,983.38
2017-10-07T07:17:31.286Z,983.40
2017-10-07T07:18:31.314Z,983.33
2017-10-07T07:19:31.354Z,983.34
2017-10-07T07:20:31.389Z,983.33
2017-10-07T07:21:31.424Z,983.23
2017-10-07T07:22:31.454Z,983.22
2017-10-07T07:23:31.491Z,983.31
2017-10-07T07:24:31.531Z,983.29
2017-10-07T07:25:31.562Z,983.36
2017-10-07T07:26:31.593Z,983.32
2017-10-07T07:27:31.635Z,983.33
2017-10-07T07:28:31.670Z,983.31
2017-10-07T07:29:31.704Z,983.35
2017-10-07T07:30:31.740Z,983.40
2017-10-07T07:31:31.780Z,983.38
2017-10-07T07:32:31.807Z,983.38
2017-10-07T07:33:31.840Z,983.37
2017-10-07T07:34:31.876Z,983.39
2017-10-07T07:35:31.922Z,983.37
2017-10-07T07:36:31.945Z,983.40
2017-10-07T07:37:31.982Z,983.34
2017-10-07T07:38:32.016Z,983.38
2017-10-07T07:39:32.052Z,983.40
2017-10-07T07:40:32.089Z,983.54
2017-10-07T07:41:32.125Z,983.51
2017-10-07T07:42:32.161Z,983.51
2017-10-07T07:43:32.196Z,983.51
2017-10-07T07:44:32.232Z,983.46
2017-10-07T07:45:32.264Z,983.48
2017-10-07T07:46:32.298Z,983.43
2017-10-07T07:47:32.338Z,983.44
2017-10-07T07:48:32.372Z,983.47
2017-10-07T07:49:32.405Z,983.49
2017-10-07T07:50:32.445Z,983.53
2017-10-07T07:51:32.477Z,983.48
2017-10-07T07:52:32.509Z,983.48
2017-10-07T07:53:32.546Z,983.47
2017-10-07T07:54:32.581Z,983.49
2017-10-07T07:55:32.617Z,983.50
2017-10-07T07:56:32.653Z,983.52
2017-10-07T07:57:32.690Z,983.53
2017-10-07T07:58:32.721Z,983.53
2017-10-07T07:59:32.756Z,983.49
2017-10-07T08:00:32.791Z,983.52
2017-10-07T08:01:32.829Z,983.51
2017-10-07T08:02:32.861Z,983.49
2017-10-07T08:03:32.897Z,983.48
2017-10-07T08:04:32.930Z,983.48
2017-10-07T08:05:32.973Z,983.50
2017-10-07T08:06:33.006Z,983.49
2017-10-07T08:07:33.039Z,983.48
2017-10-07T08:08:33.072Z,983.51
2017-10-07T08:09:33.110Z,983.49
2017-10-07T08:10:33.142Z,983.50
2017-10-07T08:11:33.178Z,983.55
2017-10-07T08:12:33.214Z,983.55
2017-10-07T08:13:33.247Z,983.50
2017-10-07T08:14:33.285Z,983.49
2017-10-07T08:15:33.318Z,983.55
2017-10-07T08:16:33.351Z,983.55
2017-10-07T08:17:33.392Z,983.56
2017-10-07T08:18:33.427Z,983.61
2017-10-07T08:19:33.460Z,983.55
2017-10-07T08:20:33.497Z,983.55
2017-10-07T08:21:33.531Z,983.62
2017-10-07T08:22:33.563Z,983.58
2017-10-07T08:23:33.602Z,983.56
2017-10-07T08:24:33.636Z,983.61
2017-10-07T08:25:33.668Z,983.56
2017-10-07T08:26:33.703Z,983.54
2017-10-07T08:27:33.741Z,983.49
2017-10-07T08:28:33.774Z,983.55
2017-10-07T08:29:33.810Z,983.50
2017-10-07T08:30:33.845Z,983.50
2017-10-07T08:31:33.887Z,983.51
2017-10-07T08:32:33.916Z,983.43
2017-10-07T08:33:33.973Z,983.49
2017-10-07T08:34:33.990Z,983.51
2017-10-07T08:35:34.022Z,983.54
2017-10-07T08:36:34.058Z,983.50
2017-10-07T08:37:34.089Z,983.54
2017-10-07T08:38:34.126Z,983.51
2017-10-07T08:39:34.164Z,983.50
2017-10-07T08:40:34.202Z,983.48
2017-10-07T08:41:34.237Z,983.47
2017-10-07T08:42:34.267Z,983.49
2017-10-07T08:43:34.306Z,983.54
2017-10-07T08:44:34.341Z,983.54
2017-10-07T08:45:34.373Z,983.44
2017-10-07T08:46:34.408Z,983.48
2017-10-07T08:47:34.442Z,983.48
2017-10-07T08:48:34.477Z,983.45
2017-10-07T08:49:34.511Z,983.45
2017-10-07T08:50:34.549Z,983.49
2017-10-07T08:51:34.582Z,983.35
2017-10-07T08:52:34.621Z,983.40
2017-10-07T08:53:34.659Z,983.40
2017-10-07T08:54:34.686Z,983.42
2017-10-07T08:55:34.726Z,983.40
2017-10-07T08:56:34.757Z,983.41
2017-10-07T08:57:34.794Z,983.39
2017-10-07T08:58:34.828Z,983.36
2017-10-07T08:59:34.864Z,983.40
2017-10-07T09:00:34.903Z,983.37
2017-10-07T09:01:34.935Z,983.28
2017-10-07T09:02:35.031Z,983.30
2017-10-07T09:03:35.008Z,983.32
2017-10-07T09:04:35.044Z,983.28
2017-10-07T09:05:35.077Z,983.28
2017-10-07T09:06:35.111Z,983.23
2017-10-07T09:07:35.151Z,983.22
2017-10-07T09:08:35.184Z,983.20
2017-10-07T09:09:35.217Z,983.21
2017-10-07T09:10:35.256Z,983.17
2017-10-07T09:11:35.290Z,983.17
2017-10-07T09:12:35.326Z,983.19
2017-10-07T09:13:35.362Z,983.13
2017-10-07T09:14:35.401Z,983.12
2017-10-07T09:15:35.433Z,983.13
2017-10-07T09:16:35.870Z,983.10
2017-10-07T09:17:35.504Z,983.10
2017-10-07T09:18:35.540Z,983.05
2017-10-07T09:19:35.577Z,983.04
2017-10-07T09:20:35.611Z,983.01
2017-10-07T09:21:35.651Z,983.02
2017-10-07T09:22:35.685Z,983.02
2017-10-07T09:23:35.721Z,983.02
2017-10-07T09:24:35.757Z,983.01
2017-10-07T09:25:35.790Z,983.02
2017-10-07T09:26:35.832Z,983.00
2017-10-07T09:27:35.866Z,982.97
2017-10-07T09:28:35.904Z,982.98
2017-10-07T09:29:35.937Z,982.94
2017-10-07T09:30:35.974Z,982.95
2017-10-07T09:31:36.006Z,982.88
2017-10-07T09:32:36.044Z,982.92
2017-10-07T09:33:36.082Z,982.88
2017-10-07T09:34:36.115Z,982.84
2017-10-07T09:35:36.153Z,982.83
2017-10-07T09:36:36.191Z,982.86
2017-10-07T09:37:36.224Z,982.73
2017-10-07T09:38:36.265Z,982.74
2017-10-07T09:39:36.297Z,982.69
2017-10-07T09:40:36.332Z,982.77
2017-10-07T09:41:36.373Z,982.74
2017-10-07T09:42:36.407Z,982.75
2017-10-07T09:43:36.442Z,982.79
2017-10-07T09:44:36.478Z,982.78
2017-10-07T09:45:36.516Z,982.75
2017-10-07T09:46:36.551Z,982.80
2017-10-07T09:47:36.596Z,982.76
2017-10-07T09:48:36.628Z,982.76
2017-10-07T09:49:36.660Z,982.68
2017-10-07T09:50:36.697Z,982.65
2017-10-07T09:51:36.732Z,982.69
2017-10-07T09:52:36.782Z,982.72
2017-10-07T09:53:36.805Z,982.70
2017-10-07T09:54:36.843Z,982.65
2017-10-07T09:55:36.876Z,982.69
2017-10-07T09:56:36.915Z,982.64
2017-10-07T09:57:36.950Z,982.62
2017-10-07T09:58:37.011Z,982.62
2017-10-07T09:59:37.023Z,982.66
2017-10-07T10:00:37.060Z,982.69
2017-10-07T10:01:37.094Z,982.56
2017-10-07T10:02:37.129Z,982.59
2017-10-07T10:03:37.180Z,982.56
2017-10-07T10:04:37.203Z,982.51
2017-10-07T10:05:37.237Z,982.49
2017-10-07T10:06:37.275Z,982.44
2017-10-07T10:07:37.309Z,982.49
2017-10-07T10:08:37.347Z,982.53
2017-10-07T10:09:37.386Z,982.45
2017-10-07T10:10:37.418Z,982.49
2017-10-07T10:11:37.455Z,982.54
2017-10-07T10:12:37.494Z,982.43
2017-10-07T10:13:37.531Z,982.44
2017-10-07T10:14:37.562Z,982.35
2017-10-07T10:15:37.600Z,982.37
2017-10-07T10:16:37.638Z,982.40
2017-10-07T10:17:37.671Z,982.35
2017-10-07T10:18:37.707Z,982.34
2017-10-07T10:19:37.746Z,982.29
2017-10-07T10:20:37.778Z,982.41
2017-10-07T10:21:37.815Z,982.31
2017-10-07T10:22:37.858Z,982.24
2017-10-07T10:23:37.889Z,982.27
2017-10-07T10:24:37.923Z,982.20
2017-10-07T10:25:37.963Z,982.31
2017-10-07T10:26:37.998Z,982.28
2017-10-07T10:27:38.033Z,982.20
2017-10-07T10:28:38.068Z,982.22
2017-10-07T10:29:38.106Z,982.22
2017-10-07T10:30:38.144Z,982.16
2017-10-07T10:31:38.185Z,982.09
2017-10-07T10:32:38.216Z,982.08
2017-10-07T10:33:38.253Z,982.12
2017-10-07T10:34:38.295Z,982.10
2017-10-07T10:35:38.325Z,982.15
2017-10-07T10:36:38.373Z,982.11
2017-10-07T10:37:38.397Z,982.05
2017-10-07T10:38:38.431Z,982.11
2017-10-07T10:39:38.471Z,982.15
2017-10-07T10:40:38.502Z,982.01
2017-10-07T10:41:38.539Z,982.07
2017-10-07T10:42:38.579Z,982.07
2017-10-07T10:43:38.618Z,982.07
2017-10-07T10:44:38.650Z,981.96
2017-10-07T10:45:38.685Z,981.93
2017-10-07T10:46:38.724Z,981.88
2017-10-07T10:47:38.761Z,981.90
2017-10-07T10:48:38.851Z,981.95
2017-10-07T10:49:38.833Z,981.91
2017-10-07T10:50:38.871Z,981.94
2017-10-07T10:51:38.906Z,982.05
2017-10-07T10:52:38.946Z,981.90
2017-10-07T10:53:38.983Z,982.02
2017-10-07T10:54:39.021Z,981.94
2017-10-07T10:55:39.054Z,981.99
2017-10-07T10:56:39.096Z,981.92
2017-10-07T10:57:39.127Z,981.92
2017-10-07T10:58:39.170Z,981.87
2017-10-07T10:59:39.207Z,981.89
2017-10-07T11:00:39.239Z,981.82
2017-10-07T11:01:39.279Z,981.88
2017-10-07T11:02:39.312Z,981.95
2017-10-07T11:03:39.350Z,981.78
2017-10-07T11:04:39.389Z,981.68
2017-10-07T11:05:39.425Z,981.71
2017-10-07T11:06:39.466Z,981.71
2017-10-07T11:07:39.496Z,981.66
2017-10-07T11:08:39.537Z,981.63
2017-10-07T11:09:39.581Z,981.64
2017-10-07T11:10:39.610Z,981.64
2017-10-07T11:11:39.643Z,981.61
2017-10-07T11:12:39.685Z,981.59
2017-10-07T11:13:39.722Z,981.56
2017-10-07T11:14:39.757Z,981.68
2017-10-07T11:15:39.798Z,981.58
2017-10-07T11:16:39.828Z,981.55
2017-10-07T11:17:39.897Z,981.56
2017-10-07T11:18:39.906Z,981.54
2017-10-07T11:19:39.946Z,981.49
2017-10-07T11:20:39.976Z,981.56
2017-10-07T11:21:40.013Z,981.48
2017-10-07T11:22:40.052Z,981.45
2017-10-07T11:23:40.087Z,981.38
2017-10-07T11:24:40.127Z,981.36
2017-10-07T11:25:40.162Z,981.35
2017-10-07T11:26:40.199Z,981.38
2017-10-07T11:27:40.234Z,981.43
2017-10-07T11:28:40.268Z,981.34
2017-10-07T11:29:40.308Z,981.34
2017-10-07T11:30:40.343Z,981.32
2017-10-07T11:31:40.381Z,981.29
2017-10-07T11:32:40.418Z,981.26
2017-10-07T11:33:40.453Z,981.27
2017-10-07T11:34:40.491Z,981.25
2017-10-07T11:35:40.527Z,981.24
2017-10-07T11:36:40.564Z,981.15
2017-10-07T11:37:40.604Z,981.25
2017-10-07T11:38:40.638Z,981.21
2017-10-07T11:39:40.675Z,981.16
2017-10-07T11:40:40.713Z,981.07
2017-10-07T11:41:40.780Z,981.13
2017-10-07T11:42:40.784Z,981.09
2017-10-07T11:43:40.827Z,981.14
2017-10-07T11:44:40.861Z,981.03
2017-10-07T11:45:40.896Z,981.03
2017-10-07T11:46:40.935Z,981.01
2017-10-07T11:47:40.969Z,980.93
2017-10-07T11:48:41.008Z,980.95
2017-10-07T11:49:41.042Z,980.95
2017-10-07T11:50:41.079Z,980.95
2017-10-07T11:51:41.123Z,980.99
2017-10-07T11:52:41.154Z,981.06
2017-10-07T11:53:41.192Z,980.98
2017-10-07T11:54:41.228Z,980.90
2017-10-07T11:55:41.265Z,980.95
2017-10-07T11:56:41.301Z,980.96
2017-10-07T11:57:41.340Z,980.89
2017-10-07T11:58:41.376Z,980.93
2017-10-07T11:59:41.429Z,980.90
2017-10-07T12:00:41.449Z,980.86
2017-10-07T12:01:41.486Z,980.83
2017-10-07T12:02:41.523Z,980.79
2017-10-07T12:03:41.559Z,980.83
2017-10-07T12:04:41.605Z,980.82
2017-10-07T12:05:41.637Z,980.76
2017-10-07T12:06:41.669Z,980.84
2017-10-07T12:07:41.710Z,980.81
2017-10-07T12:08:41.748Z,980.77
2017-10-07T12:09:41.780Z,980.73
2017-10-07T12:10:41.825Z,980.67
2017-10-07T12:11:41.855Z,980.67
2017-10-07T12:12:41.891Z,980.66
2017-10-07T12:13:41.932Z,980.51
2017-10-07T12:14:41.965Z,980.63
2017-10-07T12:15:42.005Z,980.57
2017-10-07T12:16:42.044Z,980.59
2017-10-07T12:17:42.075Z,980.63
2017-10-07T12:18:42.115Z,980.58
2017-10-07T12:19:42.151Z,980.58
2017-10-07T12:20:42.191Z,980.51
2017-10-07T12:21:42.225Z,980.63
2017-10-07T12:22:42.260Z,980.56
2017-10-07T12:23:42.301Z,980.55
2017-10-07T12:24:42.337Z,980.50
2017-10-07T12:25:42.375Z,980.50
2017-10-07T12:26:42.413Z,980.54
2017-10-07T12:27:42.445Z,980.48
2017-10-07T12:28:42.482Z,980.49